sensor_id;sensor_type;location;lat;lon;timestamp;pressure;altitude;pressure_sealevel;temperature;humidity
54308;BME280;40208;39.778;2.710;2023-04-29T00:02:31;101095.41;;;18.77;100.00
54308;BME280;40208;39.778;2.710;2023-04-29T00:05:16;101140.69;;;19.19;100.00
54308;BME280;40208;39.778;2.710;2023-04-29T00:08:01;101116.91;;;19.01;100.00
54308;BME280;40208;39.778;2.710;2023-04-29T00:10:47;101178.56;;;19.40;100.00
54308;BME280;40208;39.778;2.710;2023-04-29T00:13:31;101154.00;;;19.44;100.00
54308;BME280;40208;39.778;2.710;2023-04-29T00:16:16;101126.47;;;19.52;100.00
54308;BME280;40208;39.778;2.710;2023-04-29T00:19:02;101035.25;;;19.14;100.00
54308;BME280;40208;39.778;2.710;2023-04-29T00:21:46;101103.00;;;19.65;100.00
54308;BME280;40208;39.778;2.710;2023-04-29T00:24:32;101098.91;;;19.73;100.00
54308;BME280;40208;39.778;2.710;2023-04-29T00:27:16;101047.41;;;19.42;100.00
54308;BME280;40208;39.778;2.710;2023-04-29T00:30:02;101100.94;;;19.58;100.00
54308;BME280;40208;39.778;2.710;2023-04-29T00:32:47;101016.22;;;18.93;100.00
54308;BME280;40208;39.778;2.710;2023-04-29T00:35:32;101057.13;;;19.09;100.00
54308;BME280;40208;39.778;2.710;2023-04-29T00:38:18;101091.66;;;19.26;100.00
54308;BME280;40208;39.778;2.710;2023-04-29T00:41:02;101130.88;;;19.42;100.00
54308;BME280;40208;39.778;2.710;2023-04-29T00:43:48;101065.44;;;19.06;100.00
54308;BME280;40208;39.778;2.710;2023-04-29T00:46:33;101121.69;;;19.44;100.00
54308;BME280;40208;39.778;2.710;2023-04-29T00:49:21;101131.66;;;19.55;100.00
54308;BME280;40208;39.778;2.710;2023-04-29T00:52:07;101070.72;;;19.19;100.00
54308;BME280;40208;39.778;2.710;2023-04-29T00:54:51;101085.13;;;19.53;100.00
54308;BME280;40208;39.778;2.710;2023-04-29T00:57:36;101084.25;;;19.53;100.00
54308;BME280;40208;39.778;2.710;2023-04-29T01:00:22;101014.63;;;19.37;100.00
54308;BME280;40208;39.778;2.710;2023-04-29T01:03:09;100956.25;;;19.37;100.00
54308;BME280;40208;39.778;2.710;2023-04-29T01:06:15;100843.44;;;18.67;100.00
54308;BME280;40208;39.778;2.710;2023-04-29T01:12:05;100867.38;;;18.58;100.00
54308;BME280;40208;39.778;2.710;2023-04-29T01:15:04;101019.16;;;19.36;100.00
54308;BME280;40208;39.778;2.710;2023-04-29T01:18:05;101066.41;;;19.63;100.00
54308;BME280;40208;39.778;2.710;2023-04-29T01:20:51;101058.78;;;19.45;100.00
54308;BME280;40208;39.778;2.710;2023-04-29T01:23:36;101011.09;;;19.36;100.00
54308;BME280;40208;39.778;2.710;2023-04-29T01:26:22;101046.56;;;19.53;100.00
54308;BME280;40208;39.778;2.710;2023-04-29T01:29:26;101028.47;;;19.55;100.00
54308;BME280;40208;39.778;2.710;2023-04-29T01:32:17;100960.75;;;19.14;100.00
54308;BME280;40208;39.778;2.710;2023-04-29T01:35:21;101019.66;;;19.64;100.00
54308;BME280;40208;39.778;2.710;2023-04-29T01:43:57;100957.97;;;19.38;100.00
54308;BME280;40208;39.778;2.710;2023-04-29T01:46:50;100985.91;;;19.82;100.00
54308;BME280;40208;39.778;2.710;2023-04-29T01:49:35;100893.25;;;19.51;100.00
54308;BME280;40208;39.778;2.710;2023-04-29T01:52:20;100891.66;;;19.37;100.00
54308;BME280;40208;39.778;2.710;2023-04-29T01:55:06;100941.09;;;19.59;100.00
54308;BME280;40208;39.778;2.710;2023-04-29T01:57:51;100971.81;;;19.56;100.00
54308;BME280;40208;39.778;2.710;2023-04-29T02:00:36;100845.88;;;18.70;100.00
54308;BME280;40208;39.778;2.710;2023-04-29T02:03:21;100982.47;;;19.46;100.00
54308;BME280;40208;39.778;2.710;2023-04-29T02:06:06;100943.19;;;19.44;100.00
54308;BME280;40208;39.778;2.710;2023-04-29T02:08:52;100943.88;;;19.57;100.00
54308;BME280;40208;39.778;2.710;2023-04-29T02:11:37;100914.41;;;19.56;100.00
54308;BME280;40208;39.778;2.710;2023-04-29T02:14:22;100919.06;;;19.54;100.00
54308;BME280;40208;39.778;2.710;2023-04-29T02:17:06;100911.63;;;19.46;100.00
54308;BME280;40208;39.778;2.710;2023-04-29T02:19:51;100925.19;;;19.56;100.00
54308;BME280;40208;39.778;2.710;2023-04-29T02:22:38;100743.97;;;18.44;100.00
54308;BME280;40208;39.778;2.710;2023-04-29T02:25:23;100943.56;;;19.51;100.00
54308;BME280;40208;39.778;2.710;2023-04-29T02:28:08;100915.41;;;19.32;100.00
54308;BME280;40208;39.778;2.710;2023-04-29T02:30:53;100936.81;;;19.45;100.00
54308;BME280;40208;39.778;2.710;2023-04-29T02:33:38;100944.78;;;19.46;100.00
54308;BME280;40208;39.778;2.710;2023-04-29T02:36:24;100832.06;;;18.63;100.00
54308;BME280;40208;39.778;2.710;2023-04-29T02:39:09;100992.13;;;19.49;100.00
54308;BME280;40208;39.778;2.710;2023-04-29T02:41:54;101002.63;;;19.52;100.00
54308;BME280;40208;39.778;2.710;2023-04-29T02:44:39;100990.16;;;19.40;100.00
54308;BME280;40208;39.778;2.710;2023-04-29T02:47:25;100963.47;;;19.25;100.00
54308;BME280;40208;39.778;2.710;2023-04-29T02:50:09;101006.06;;;19.32;100.00
54308;BME280;40208;39.778;2.710;2023-04-29T02:52:54;101015.94;;;19.31;100.00
54308;BME280;40208;39.778;2.710;2023-04-29T02:55:39;101037.63;;;19.41;100.00
54308;BME280;40208;39.778;2.710;2023-04-29T02:58:24;100865.75;;;18.44;100.00
54308;BME280;40208;39.778;2.710;2023-04-29T03:01:09;100989.50;;;19.14;100.00
54308;BME280;40208;39.778;2.710;2023-04-29T03:03:53;101047.31;;;19.43;100.00
54308;BME280;40208;39.778;2.710;2023-04-29T03:06:38;101054.66;;;19.41;100.00
54308;BME280;40208;39.778;2.710;2023-04-29T03:09:23;101000.47;;;18.99;100.00
54308;BME280;40208;39.778;2.710;2023-04-29T03:12:08;101086.41;;;19.25;100.00
54308;BME280;40208;39.778;2.710;2023-04-29T03:14:52;101036.66;;;18.95;100.00
54308;BME280;40208;39.778;2.710;2023-04-29T03:17:37;101106.53;;;19.08;100.00
54308;BME280;40208;39.778;2.710;2023-04-29T03:20:22;101172.03;;;19.31;100.00
54308;BME280;40208;39.778;2.710;2023-04-29T03:23:07;101184.09;;;19.14;100.00
54308;BME280;40208;39.778;2.710;2023-04-29T03:25:52;101211.66;;;19.29;100.00
54308;BME280;40208;39.778;2.710;2023-04-29T03:28:38;101140.44;;;18.87;100.00
54308;BME280;40208;39.778;2.710;2023-04-29T03:31:23;101164.63;;;19.11;100.00
54308;BME280;40208;39.778;2.710;2023-04-29T03:34:10;101213.63;;;19.27;100.00
54308;BME280;40208;39.778;2.710;2023-04-29T03:36:55;101208.97;;;19.29;100.00
54308;BME280;40208;39.778;2.710;2023-04-29T03:39:41;101099.16;;;18.99;100.00
54308;BME280;40208;39.778;2.710;2023-04-29T03:42:25;101080.53;;;18.96;100.00
54308;BME280;40208;39.778;2.710;2023-04-29T03:45:10;101112.69;;;19.21;100.00
54308;BME280;40208;39.778;2.710;2023-04-29T03:47:57;101107.25;;;19.34;100.00
54308;BME280;40208;39.778;2.710;2023-04-29T03:50:42;101098.41;;;19.32;100.00
54308;BME280;40208;39.778;2.710;2023-04-29T03:53:27;100990.94;;;18.95;100.00
54308;BME280;40208;39.778;2.710;2023-04-29T03:56:12;101035.78;;;19.30;100.00
54308;BME280;40208;39.778;2.710;2023-04-29T03:58:57;100957.31;;;18.90;100.00
54308;BME280;40208;39.778;2.710;2023-04-29T04:01:41;100953.03;;;18.87;100.00
54308;BME280;40208;39.778;2.710;2023-04-29T04:04:26;100918.06;;;18.87;100.00
54308;BME280;40208;39.778;2.710;2023-04-29T04:07:11;100994.91;;;19.25;100.00
54308;BME280;40208;39.778;2.710;2023-04-29T04:09:57;100959.44;;;19.31;100.00
54308;BME280;40208;39.778;2.710;2023-04-29T04:12:42;100911.97;;;19.07;100.00
54308;BME280;40208;39.778;2.710;2023-04-29T04:15:26;100778.63;;;18.36;100.00
54308;BME280;40208;39.778;2.710;2023-04-29T04:18:11;100934.63;;;19.27;100.00
54308;BME280;40208;39.778;2.710;2023-04-29T04:20:56;100895.09;;;19.17;100.00
54308;BME280;40208;39.778;2.710;2023-04-29T04:23:40;100884.56;;;19.14;100.00
54308;BME280;40208;39.778;2.710;2023-04-29T04:26:26;100898.03;;;19.25;100.00
54308;BME280;40208;39.778;2.710;2023-04-29T04:29:11;100879.44;;;19.11;100.00
54308;BME280;40208;39.778;2.710;2023-04-29T04:31:55;100887.28;;;19.25;100.00
54308;BME280;40208;39.778;2.710;2023-04-29T04:34:40;100822.94;;;18.77;100.00
54308;BME280;40208;39.778;2.710;2023-04-29T04:37:25;100888.38;;;19.22;100.00
54308;BME280;40208;39.778;2.710;2023-04-29T04:40:10;100822.09;;;18.88;100.00
54308;BME280;40208;39.778;2.710;2023-04-29T04:42:56;100722.06;;;18.26;100.00
54308;BME280;40208;39.778;2.710;2023-04-29T04:45:42;100871.59;;;19.07;100.00
54308;BME280;40208;39.778;2.710;2023-04-29T04:48:27;100863.03;;;19.02;100.00
54308;BME280;40208;39.778;2.710;2023-04-29T04:51:12;100868.22;;;19.05;100.00
54308;BME280;40208;39.778;2.710;2023-04-29T04:53:57;100800.16;;;18.70;100.00
54308;BME280;40208;39.778;2.710;2023-04-29T04:56:42;100700.31;;;18.07;100.00
54308;BME280;40208;39.778;2.710;2023-04-29T04:59:27;100830.63;;;18.81;100.00
54308;BME280;40208;39.778;2.710;2023-04-29T05:02:12;100800.91;;;18.60;100.00
54308;BME280;40208;39.778;2.710;2023-04-29T05:04:57;100794.53;;;18.50;100.00
54308;BME280;40208;39.778;2.710;2023-04-29T05:07:42;100868.44;;;19.02;100.00
54308;BME280;40208;39.778;2.710;2023-04-29T05:10:27;100868.56;;;19.01;100.00
54308;BME280;40208;39.778;2.710;2023-04-29T05:13:12;100794.78;;;18.47;100.00
54308;BME280;40208;39.778;2.710;2023-04-29T05:15:57;100882.00;;;18.90;100.00
54308;BME280;40208;39.778;2.710;2023-04-29T05:18:42;100848.81;;;18.67;100.00
54308;BME280;40208;39.778;2.710;2023-04-29T05:21:29;100821.03;;;18.43;100.00
54308;BME280;40208;39.778;2.710;2023-04-29T05:24:14;100888.94;;;18.81;100.00
54308;BME280;40208;39.778;2.710;2023-04-29T05:26:59;100887.44;;;18.65;100.00
54308;BME280;40208;39.778;2.710;2023-04-29T05:29:44;100912.63;;;18.40;100.00
54308;BME280;40208;39.778;2.710;2023-04-29T05:32:29;100854.81;;;18.23;100.00
54308;BME280;40208;39.778;2.710;2023-04-29T05:35:14;100947.41;;;18.90;100.00
54308;BME280;40208;39.778;2.710;2023-04-29T05:37:59;100980.16;;;18.84;100.00
54308;BME280;40208;39.778;2.710;2023-04-29T05:40:44;100949.81;;;18.47;100.00
54308;BME280;40208;39.778;2.710;2023-04-29T05:43:29;101071.22;;;18.89;100.00
54308;BME280;40208;39.778;2.710;2023-04-29T05:46:17;101077.94;;;18.83;100.00
54308;BME280;40208;39.778;2.710;2023-04-29T05:49:03;101070.47;;;19.11;100.00
54308;BME280;40208;39.778;2.710;2023-04-29T05:51:48;101062.34;;;18.99;100.00
54308;BME280;40208;39.778;2.710;2023-04-29T05:54:33;101102.16;;;19.18;100.00
54308;BME280;40208;39.778;2.710;2023-04-29T05:57:18;101053.81;;;19.05;100.00
54308;BME280;40208;39.778;2.710;2023-04-29T06:00:04;101051.53;;;18.88;100.00
54308;BME280;40208;39.778;2.710;2023-04-29T06:02:50;100991.78;;;18.72;100.00
54308;BME280;40208;39.778;2.710;2023-04-29T06:05:35;101072.31;;;19.10;100.00
54308;BME280;40208;39.778;2.710;2023-04-29T06:08:20;101072.47;;;18.96;100.00
54308;BME280;40208;39.778;2.710;2023-04-29T06:11:05;100986.34;;;18.49;100.00
54308;BME280;40208;39.778;2.710;2023-04-29T06:13:50;100915.66;;;18.36;100.00
54308;BME280;40208;39.778;2.710;2023-04-29T06:16:35;101003.22;;;19.11;100.00
54308;BME280;40208;39.778;2.710;2023-04-29T06:19:21;101016.72;;;19.44;100.00
54308;BME280;40208;39.778;2.710;2023-04-29T06:22:06;100878.69;;;18.97;100.00
54308;BME280;40208;39.778;2.710;2023-04-29T06:24:51;100900.47;;;18.94;100.00
54308;BME280;40208;39.778;2.710;2023-04-29T06:27:36;100952.47;;;19.28;100.00
54308;BME280;40208;39.778;2.710;2023-04-29T06:30:20;100996.16;;;19.55;100.00
54308;BME280;40208;39.778;2.710;2023-04-29T06:33:12;100995.19;;;19.56;100.00
54308;BME280;40208;39.778;2.710;2023-04-29T06:35:57;100998.63;;;19.58;100.00
54308;BME280;40208;39.778;2.710;2023-04-29T06:38:42;100901.44;;;19.04;100.00
54308;BME280;40208;39.778;2.710;2023-04-29T06:41:26;100882.88;;;19.01;100.00
54308;BME280;40208;39.778;2.710;2023-04-29T06:44:11;100918.78;;;19.00;100.00
54308;BME280;40208;39.778;2.710;2023-04-29T06:47:00;101017.59;;;19.67;100.00
54308;BME280;40208;39.778;2.710;2023-04-29T06:49:44;100953.09;;;19.32;100.00
54308;BME280;40208;39.778;2.710;2023-04-29T06:52:29;100891.53;;;19.05;100.00
54308;BME280;40208;39.778;2.710;2023-04-29T06:55:16;101001.69;;;19.76;100.00
54308;BME280;40208;39.778;2.710;2023-04-29T06:58:01;100897.03;;;19.15;100.00
54308;BME280;40208;39.778;2.710;2023-04-29T07:00:49;100904.13;;;19.04;100.00
54308;BME280;40208;39.778;2.710;2023-04-29T07:03:33;100915.66;;;19.18;100.00
54308;BME280;40208;39.778;2.710;2023-04-29T07:06:19;100905.50;;;19.10;100.00
54308;BME280;40208;39.778;2.710;2023-04-29T07:09:04;101010.63;;;19.76;100.00
54308;BME280;40208;39.778;2.710;2023-04-29T07:11:49;100999.84;;;19.76;100.00
54308;BME280;40208;39.778;2.710;2023-04-29T07:14:34;101025.31;;;19.95;100.00
54308;BME280;40208;39.778;2.710;2023-04-29T07:17:20;100910.41;;;19.39;100.00
54308;BME280;40208;39.778;2.710;2023-04-29T07:20:06;100983.47;;;19.79;100.00
54308;BME280;40208;39.778;2.710;2023-04-29T07:22:51;100971.69;;;19.91;100.00
54308;BME280;40208;39.778;2.710;2023-04-29T07:25:37;100972.63;;;20.02;100.00
54308;BME280;40208;39.778;2.710;2023-04-29T07:28:21;100808.28;;;19.03;100.00
54308;BME280;40208;39.778;2.710;2023-04-29T07:31:07;100908.78;;;19.59;100.00
54308;BME280;40208;39.778;2.710;2023-04-29T07:33:52;100819.28;;;19.12;100.00
54308;BME280;40208;39.778;2.710;2023-04-29T07:36:37;100930.78;;;19.64;100.00
54308;BME280;40208;39.778;2.710;2023-04-29T07:39:21;100912.94;;;19.63;100.00
54308;BME280;40208;39.778;2.710;2023-04-29T07:42:06;101001.25;;;20.14;100.00
54308;BME280;40208;39.778;2.710;2023-04-29T07:44:51;100988.31;;;19.97;100.00
54308;BME280;40208;39.778;2.710;2023-04-29T07:47:36;100984.78;;;19.96;100.00
54308;BME280;40208;39.778;2.710;2023-04-29T07:50:21;101020.88;;;20.16;100.00
54308;BME280;40208;39.778;2.710;2023-04-29T07:53:06;100947.34;;;19.70;100.00
54308;BME280;40208;39.778;2.710;2023-04-29T07:55:51;100926.25;;;19.64;100.00
54308;BME280;40208;39.778;2.710;2023-04-29T07:58:36;100964.94;;;19.86;100.00
54308;BME280;40208;39.778;2.710;2023-04-29T08:01:20;100993.81;;;19.95;100.00
54308;BME280;40208;39.778;2.710;2023-04-29T08:04:05;100943.56;;;19.51;100.00
54308;BME280;40208;39.778;2.710;2023-04-29T08:06:51;100973.13;;;19.62;100.00
54308;BME280;40208;39.778;2.710;2023-04-29T08:09:36;101073.16;;;20.25;100.00
54308;BME280;40208;39.778;2.710;2023-04-29T08:12:20;101077.44;;;20.27;100.00
54308;BME280;40208;39.778;2.710;2023-04-29T08:15:06;100888.25;;;19.35;100.00
54308;BME280;40208;39.778;2.710;2023-04-29T08:17:51;100919.69;;;19.80;100.00
54308;BME280;40208;39.778;2.710;2023-04-29T08:20:36;100940.16;;;20.47;100.00
54308;BME280;40208;39.778;2.710;2023-04-29T08:23:27;100729.81;;;18.98;100.00
54308;BME280;40208;39.778;2.710;2023-04-29T08:26:12;101024.63;;;20.36;100.00
54308;BME280;40208;39.778;2.710;2023-04-29T08:28:57;100865.75;;;19.36;100.00
54308;BME280;40208;39.778;2.710;2023-04-29T08:31:42;100993.28;;;20.24;100.00
54308;BME280;40208;39.778;2.710;2023-04-29T08:34:27;100969.66;;;20.16;100.00
54308;BME280;40208;39.778;2.710;2023-04-29T08:37:12;100916.72;;;19.72;100.00
54308;BME280;40208;39.778;2.710;2023-04-29T08:39:57;100915.75;;;19.61;100.00
54308;BME280;40208;39.778;2.710;2023-04-29T08:42:44;101044.00;;;20.30;100.00
54308;BME280;40208;39.778;2.710;2023-04-29T08:45:29;101041.03;;;20.33;100.00
54308;BME280;40208;39.778;2.710;2023-04-29T08:48:18;101031.00;;;20.35;100.00
54308;BME280;40208;39.778;2.710;2023-04-29T08:51:02;101034.53;;;20.36;100.00
54308;BME280;40208;39.778;2.710;2023-04-29T08:53:49;101001.16;;;20.16;100.00
54308;BME280;40208;39.778;2.710;2023-04-29T08:56:35;100860.22;;;19.49;100.00
54308;BME280;40208;39.778;2.710;2023-04-29T08:59:21;100962.31;;;20.18;100.00
54308;BME280;40208;39.778;2.710;2023-04-29T09:02:08;100955.97;;;20.08;100.00
54308;BME280;40208;39.778;2.710;2023-04-29T09:05:08;100996.03;;;20.45;100.00
54308;BME280;40208;39.778;2.710;2023-04-29T09:07:56;100976.19;;;20.46;100.00
54308;BME280;40208;39.778;2.710;2023-04-29T09:10:43;100934.63;;;20.16;100.00
54308;BME280;40208;39.778;2.710;2023-04-29T09:13:31;100903.81;;;19.98;100.00
54308;BME280;40208;39.778;2.710;2023-04-29T09:16:16;100940.00;;;20.27;100.00
54308;BME280;40208;39.778;2.710;2023-04-29T09:19:01;100997.38;;;20.50;100.00
54308;BME280;40208;39.778;2.710;2023-04-29T09:21:53;100878.91;;;19.84;100.00
54308;BME280;40208;39.778;2.710;2023-04-29T09:24:39;100884.97;;;19.98;100.00
54308;BME280;40208;39.778;2.710;2023-04-29T09:27:28;100926.03;;;20.22;100.00
54308;BME280;40208;39.778;2.710;2023-04-29T09:30:13;100955.66;;;20.54;100.00
54308;BME280;40208;39.778;2.710;2023-04-29T09:33:08;100977.75;;;20.81;100.00
54308;BME280;40208;39.778;2.710;2023-04-29T09:35:53;100970.63;;;20.91;100.00
54308;BME280;40208;39.778;2.710;2023-04-29T09:38:52;100618.59;;;18.77;100.00
54308;BME280;40208;39.778;2.710;2023-04-29T09:44:34;100866.22;;;20.49;100.00
54308;BME280;40208;39.778;2.710;2023-04-29T09:47:29;100864.13;;;20.53;100.00
54308;BME280;40208;39.778;2.710;2023-04-29T09:50:17;100941.72;;;21.03;100.00
54308;BME280;40208;39.778;2.710;2023-04-29T09:53:04;100890.03;;;20.77;100.00
54308;BME280;40208;39.778;2.710;2023-04-29T09:56:00;100936.09;;;21.15;100.00
54308;BME280;40208;39.778;2.710;2023-04-29T09:58:45;100898.22;;;20.96;100.00
54308;BME280;40208;39.778;2.710;2023-04-29T10:01:33;100943.44;;;21.34;100.00
54308;BME280;40208;39.778;2.710;2023-04-29T10:04:20;100838.50;;;20.80;100.00
54308;BME280;40208;39.778;2.710;2023-04-29T10:07:06;100942.66;;;21.44;100.00
54308;BME280;40208;39.778;2.710;2023-04-29T10:09:52;100793.31;;;20.72;100.00
54308;BME280;40208;39.778;2.710;2023-04-29T10:12:39;100929.47;;;21.50;100.00
54308;BME280;40208;39.778;2.710;2023-04-29T10:15:48;100935.59;;;21.52;100.00
54308;BME280;40208;39.778;2.710;2023-04-29T10:18:36;100924.38;;;21.57;100.00
54308;BME280;40208;39.778;2.710;2023-04-29T10:21:28;100936.06;;;21.67;100.00
54308;BME280;40208;39.778;2.710;2023-04-29T10:24:17;100954.06;;;21.97;100.00
54308;BME280;40208;39.778;2.710;2023-04-29T10:27:06;100964.91;;;22.17;100.00
54308;BME280;40208;39.778;2.710;2023-04-29T10:29:53;100890.19;;;21.96;100.00
54308;BME280;40208;39.778;2.710;2023-04-29T10:32:40;100976.34;;;22.50;100.00
54308;BME280;40208;39.778;2.710;2023-04-29T10:35:25;100861.59;;;21.84;100.00
54308;BME280;40208;39.778;2.710;2023-04-29T10:38:25;100817.75;;;21.61;100.00
54308;BME280;40208;39.778;2.710;2023-04-29T10:41:42;100952.88;;;22.50;100.00
54308;BME280;40208;39.778;2.710;2023-04-29T10:44:30;100994.84;;;22.83;100.00
54308;BME280;40208;39.778;2.710;2023-04-29T10:47:18;101000.56;;;22.90;100.00
54308;BME280;40208;39.778;2.710;2023-04-29T10:50:10;100881.84;;;22.29;100.00
54308;BME280;40208;39.778;2.710;2023-04-29T10:52:55;101007.97;;;23.07;100.00
54308;BME280;40208;39.778;2.710;2023-04-29T10:55:42;100967.78;;;22.83;100.00
54308;BME280;40208;39.778;2.710;2023-04-29T10:58:43;100952.41;;;22.74;100.00
54308;BME280;40208;39.778;2.710;2023-04-29T11:01:44;101013.66;;;23.14;100.00
54308;BME280;40208;39.778;2.710;2023-04-29T11:04:30;101001.38;;;23.20;100.00
54308;BME280;40208;39.778;2.710;2023-04-29T11:07:26;100957.66;;;22.95;100.00
54308;BME280;40208;39.778;2.710;2023-04-29T11:10:12;100996.69;;;23.12;100.00
54308;BME280;40208;39.778;2.710;2023-04-29T11:13:25;101003.66;;;23.24;100.00
54308;BME280;40208;39.778;2.710;2023-04-29T11:16:11;101002.22;;;23.20;100.00
54308;BME280;40208;39.778;2.710;2023-04-29T11:19:08;100974.63;;;23.07;100.00
54308;BME280;40208;39.778;2.710;2023-04-29T11:22:07;100933.34;;;22.76;100.00
54308;BME280;40208;39.778;2.710;2023-04-29T11:25:04;100994.13;;;23.11;100.00
54308;BME280;40208;39.778;2.710;2023-04-29T11:27:50;100907.41;;;22.63;100.00
54308;BME280;40208;39.778;2.710;2023-04-29T11:30:35;100994.56;;;23.06;100.00
54308;BME280;40208;39.778;2.710;2023-04-29T11:33:22;101001.38;;;23.20;100.00
54308;BME280;40208;39.778;2.710;2023-04-29T11:36:10;101007.63;;;23.20;100.00
54308;BME280;40208;39.778;2.710;2023-04-29T11:38:54;100915.97;;;22.78;100.00
54308;BME280;40208;39.778;2.710;2023-04-29T11:41:39;100995.13;;;23.19;100.00
54308;BME280;40208;39.778;2.710;2023-04-29T11:44:24;100879.97;;;22.49;100.00
54308;BME280;40208;39.778;2.710;2023-04-29T11:47:09;100901.16;;;22.63;100.00
54308;BME280;40208;39.778;2.710;2023-04-29T11:50:03;100975.34;;;23.09;100.00
54308;BME280;40208;39.778;2.710;2023-04-29T11:52:49;100959.66;;;23.03;100.00
54308;BME280;40208;39.778;2.710;2023-04-29T11:55:34;100985.69;;;23.23;100.00
54308;BME280;40208;39.778;2.710;2023-04-29T11:58:21;100978.97;;;23.37;100.00
54308;BME280;40208;39.778;2.710;2023-04-29T12:01:06;100981.47;;;23.48;100.00
54308;BME280;40208;39.778;2.710;2023-04-29T12:03:56;100936.34;;;23.29;100.00
54308;BME280;40208;39.778;2.710;2023-04-29T12:06:43;100957.44;;;23.36;100.00
54308;BME280;40208;39.778;2.710;2023-04-29T12:09:27;100929.28;;;23.19;100.00
54308;BME280;40208;39.778;2.710;2023-04-29T12:12:13;100973.75;;;23.54;100.00
54308;BME280;40208;39.778;2.710;2023-04-29T12:14:59;100942.59;;;23.40;100.00
54308;BME280;40208;39.778;2.710;2023-04-29T12:17:46;100972.84;;;23.63;100.00
54308;BME280;40208;39.778;2.710;2023-04-29T12:20:31;100978.13;;;23.64;100.00
54308;BME280;40208;39.778;2.710;2023-04-29T12:23:18;100971.03;;;23.63;100.00
54308;BME280;40208;39.778;2.710;2023-04-29T12:26:03;100978.84;;;23.66;100.00
54308;BME280;40208;39.778;2.710;2023-04-29T12:28:53;100955.44;;;23.65;100.00
54308;BME280;40208;39.778;2.710;2023-04-29T12:31:38;100922.50;;;23.42;100.00
54308;BME280;40208;39.778;2.710;2023-04-29T12:34:30;100947.75;;;23.61;100.00
54308;BME280;40208;39.778;2.710;2023-04-29T12:37:15;100940.28;;;23.73;100.00
54308;BME280;40208;39.778;2.710;2023-04-29T12:40:00;100923.06;;;23.74;100.00
54308;BME280;40208;39.778;2.710;2023-04-29T12:42:45;100911.47;;;23.81;100.00
54308;BME280;40208;39.778;2.710;2023-04-29T12:45:33;100949.66;;;24.06;100.00
54308;BME280;40208;39.778;2.710;2023-04-29T12:48:18;100860.19;;;23.60;100.00
54308;BME280;40208;39.778;2.710;2023-04-29T12:51:04;100941.78;;;24.12;100.00
54308;BME280;40208;39.778;2.710;2023-04-29T12:53:49;100943.88;;;24.19;100.00
54308;BME280;40208;39.778;2.710;2023-04-29T12:56:34;100808.31;;;23.37;100.00
54308;BME280;40208;39.778;2.710;2023-04-29T12:59:19;100863.53;;;23.82;100.00
54308;BME280;40208;39.778;2.710;2023-04-29T13:02:04;100928.53;;;24.09;100.00
54308;BME280;40208;39.778;2.710;2023-04-29T13:04:49;100915.06;;;24.00;100.00
54308;BME280;40208;39.778;2.710;2023-04-29T13:07:34;100890.16;;;23.86;100.00
54308;BME280;40208;39.778;2.710;2023-04-29T13:10:19;100934.28;;;24.06;100.00
54308;BME280;40208;39.778;2.710;2023-04-29T13:13:04;100936.06;;;24.16;100.00
54308;BME280;40208;39.778;2.710;2023-04-29T13:15:49;100939.06;;;24.12;100.00
54308;BME280;40208;39.778;2.710;2023-04-29T13:18:34;100929.31;;;24.20;100.00
54308;BME280;40208;39.778;2.710;2023-04-29T13:21:19;100850.59;;;23.76;100.00
54308;BME280;40208;39.778;2.710;2023-04-29T13:24:05;100929.69;;;24.25;100.00
54308;BME280;40208;39.778;2.710;2023-04-29T13:26:51;100911.94;;;24.12;100.00
54308;BME280;40208;39.778;2.710;2023-04-29T13:29:36;100924.59;;;24.22;100.00
54308;BME280;40208;39.778;2.710;2023-04-29T13:32:21;100897.31;;;24.05;100.00
54308;BME280;40208;39.778;2.710;2023-04-29T13:35:07;100679.59;;;22.70;100.00
54308;BME280;40208;39.778;2.710;2023-04-29T13:37:52;100918.63;;;24.18;100.00
54308;BME280;40208;39.778;2.710;2023-04-29T13:40:37;100922.28;;;24.09;100.00
54308;BME280;40208;39.778;2.710;2023-04-29T13:43:22;100778.50;;;23.19;100.00
54308;BME280;40208;39.778;2.710;2023-04-29T13:46:07;100627.56;;;22.20;100.00
54308;BME280;40208;39.778;2.710;2023-04-29T13:48:52;100888.09;;;23.80;100.00
54308;BME280;40208;39.778;2.710;2023-04-29T13:51:37;100930.47;;;23.99;100.00
54308;BME280;40208;39.778;2.710;2023-04-29T13:54:22;100937.13;;;24.05;100.00
54308;BME280;40208;39.778;2.710;2023-04-29T13:57:07;100906.59;;;24.03;100.00
54308;BME280;40208;39.778;2.710;2023-04-29T13:59:52;100918.22;;;24.13;100.00
54308;BME280;40208;39.778;2.710;2023-04-29T14:02:41;100853.88;;;23.69;100.00
54308;BME280;40208;39.778;2.710;2023-04-29T14:05:26;100842.19;;;23.69;100.00
54308;BME280;40208;39.778;2.710;2023-04-29T14:08:12;100847.19;;;23.74;100.00
54308;BME280;40208;39.778;2.710;2023-04-29T14:10:57;100906.16;;;24.07;100.00
54308;BME280;40208;39.778;2.710;2023-04-29T14:13:42;100827.31;;;23.55;100.00
54308;BME280;40208;39.778;2.710;2023-04-29T14:16:28;100617.63;;;22.21;100.00
54308;BME280;40208;39.778;2.710;2023-04-29T14:19:13;100863.31;;;23.65;100.00
54308;BME280;40208;39.778;2.710;2023-04-29T14:21:57;100858.78;;;23.56;100.00
54308;BME280;40208;39.778;2.710;2023-04-29T14:24:42;100930.94;;;23.95;100.00
54308;BME280;40208;39.778;2.710;2023-04-29T14:27:27;100818.34;;;23.27;100.00
54308;BME280;40208;39.778;2.710;2023-04-29T14:30:12;100822.34;;;23.23;100.00
54308;BME280;40208;39.778;2.710;2023-04-29T14:32:57;100836.53;;;23.35;100.00